Time;durP1;ratioP1;P1;durP2;ratioP2;P2;SDS_P1;SDS_P2;PMS_P1;PMS_P2;Temp;Humidity;BMP_temperature;BMP_pressure;BME280_temperature;BME280_humidity;BME280_pressure;Samples;Min_cycle;Max_cycle;Signal;HPM_P1;HPM_P2
2023/04/20 00:00:10;;;;;;;8.02;2.92;;;11.20;99.90;;;;;;5097198;28;20119;-72
2023/04/20 00:02:37;;;;;;;6.55;2.47;;;11.20;99.90;;;;;;5097513;28;20047;-72
2023/04/20 00:05:06;;;;;;;9.30;2.60;;;11.20;99.90;;;;;;5096722;28;20044;-72
2023/04/20 00:07:32;;;;;;;10.63;2.38;;;11.10;99.90;;;;;;5097385;28;20125;-72
2023/04/20 00:09:57;;;;;;;5.15;1.77;;;11.10;99.90;;;;;;5097089;28;20075;-72
2023/04/20 00:12:23;;;;;;;11.68;2.42;;;10.90;99.90;;;;;;5096996;28;20048;-72
2023/04/20 00:14:49;;;;;;;5.25;2.17;;;10.90;99.90;;;;;;5096960;28;20044;-72
2023/04/20 00:17:15;;;;;;;11.80;2.20;;;11.00;99.90;;;;;;5096660;28;20052;-72
2023/04/20 00:19:40;;;;;;;5.43;1.98;;;10.90;99.90;;;;;;5096793;28;20040;-72
2023/04/20 00:22:06;;;;;;;11.75;2.35;;;10.90;99.90;;;;;;5096840;28;20039;-73
2023/04/20 00:24:32;;;;;;;5.25;2.05;;;10.90;99.90;;;;;;5096826;28;20123;-73
2023/04/20 00:26:57;;;;;;;9.68;2.38;;;11.00;99.90;;;;;;5097161;28;20047;-72
2023/04/20 00:29:23;;;;;;;6.30;1.67;;;11.10;99.90;;;;;;5096794;28;20040;-72
2023/04/20 00:31:48;;;;;;;7.07;1.88;;;10.90;99.90;;;;;;5097013;28;20036;-72
2023/04/20 00:34:15;;;;;;;5.07;2.20;;;10.80;99.90;;;;;;5096649;28;20089;-72
2023/04/20 00:36:40;;;;;;;9.50;2.03;;;10.90;99.90;;;;;;5096996;28;20044;-72
2023/04/20 00:39:06;;;;;;;6.70;1.70;;;10.90;99.90;;;;;;5096937;28;20046;-73
2023/04/20 00:41:32;;;;;;;5.78;1.80;;;10.90;99.90;;;;;;5096667;28;20036;-73
2023/04/20 00:43:57;;;;;;;6.55;1.90;;;11.10;99.90;;;;;;5095795;28;20044;-73
2023/04/20 00:46:23;;;;;;;4.07;1.40;;;11.20;99.90;;;;;;5096834;28;20047;-73
2023/04/20 00:48:50;;;;;;;5.28;1.85;;;11.20;99.90;;;;;;5096850;28;20048;-71
2023/04/20 00:51:17;;;;;;;3.95;1.73;;;11.20;99.90;;;;;;5096822;28;20048;-71
2023/04/20 00:53:43;;;;;;;6.93;2.00;;;11.20;99.90;;;;;;5096506;28;20051;-71
2023/04/20 00:56:12;;;;;;;4.00;1.70;;;11.30;99.90;;;;;;5096433;28;20425;-71
2023/04/20 00:58:38;;;;;;;6.90;1.70;;;11.20;99.90;;;;;;5096649;28;20097;-72
2023/04/20 01:01:04;;;;;;;3.83;1.67;;;11.10;99.90;;;;;;5096668;28;20040;-72
2023/04/20 01:03:30;;;;;;;4.93;1.67;;;11.20;99.90;;;;;;5096281;28;20028;-72
2023/04/20 01:05:56;;;;;;;5.93;1.73;;;11.20;99.90;;;;;;5096447;28;20307;-72
2023/04/20 01:08:26;;;;;;;5.72;1.80;;;11.30;99.90;;;;;;5096688;28;20097;-72
2023/04/20 01:10:55;;;;;;;5.47;1.83;;;11.20;99.90;;;;;;5096664;28;20086;-72
2023/04/20 01:13:21;;;;;;;8.02;2.03;;;11.10;99.90;;;;;;5095534;28;20329;-72
2023/04/20 01:15:46;;;;;;;6.63;1.85;;;11.20;99.90;;;;;;5096574;28;20050;-72
2023/04/20 01:18:13;;;;;;;8.95;2.20;;;11.10;99.90;;;;;;5096027;28;20056;-72
2023/04/20 01:20:38;;;;;;;4.82;1.58;;;11.20;99.90;;;;;;5096380;28;20040;-72
2023/04/20 01:23:04;;;;;;;4.90;1.58;;;11.20;99.90;;;;;;5096177;28;20452;-72
2023/04/20 01:25:30;;;;;;;4.00;1.75;;;11.20;99.90;;;;;;5095463;28;20044;-72
2023/04/20 01:27:56;;;;;;;3.10;1.60;;;11.20;99.90;;;;;;5096491;28;20040;-72
2023/04/20 01:30:21;;;;;;;9.30;2.00;;;11.30;99.90;;;;;;5096480;28;20044;-72
2023/04/20 01:32:47;;;;;;;6.80;1.67;;;11.20;99.90;;;;;;5096427;28;20043;-72
2023/04/20 01:35:14;;;;;;;5.88;1.80;;;11.00;99.90;;;;;;5095741;28;20161;-72
2023/04/20 01:37:40;;;;;;;4.90;1.70;;;10.90;99.90;;;;;;5096447;28;20032;-72
2023/04/20 01:40:09;;;;;;;5.72;1.83;;;10.80;99.90;;;;;;5095413;28;20421;-72
2023/04/20 01:42:35;;;;;;;3.50;1.52;;;10.70;99.90;;;;;;5097043;28;20441;-72
2023/04/20 01:45:01;;;;;;;4.70;1.50;;;10.70;99.90;;;;;;5100559;28;20044;-72
2023/04/20 01:47:26;;;;;;;3.97;1.67;;;10.70;99.90;;;;;;5100037;28;20044;-72
2023/04/20 01:49:52;;;;;;;7.07;1.80;;;10.80;99.90;;;;;;5099659;28;20085;-72
2023/04/20 01:52:17;;;;;;;4.75;1.55;;;10.80;99.90;;;;;;5098643;28;20040;-72
2023/04/20 01:54:43;;;;;;;7.93;1.77;;;10.90;99.90;;;;;;5099940;28;20378;-72
2023/04/20 01:57:09;;;;;;;7.10;1.85;;;10.80;99.90;;;;;;5099566;28;20044;-72
2023/04/20 01:59:35;;;;;;;4.53;1.65;;;10.80;99.90;;;;;;5098545;28;20048;-72
2023/04/20 02:02:00;;;;;;;4.30;1.50;;;10.80;99.90;;;;;;5098405;28;20040;-72
2023/04/20 02:04:26;;;;;;;5.10;1.27;;;10.80;99.90;;;;;;5099421;28;20043;-72
2023/04/20 02:06:52;;;;;;;5.78;1.67;;;10.80;99.90;;;;;;5099378;28;20044;-73
2023/04/20 02:09:17;;;;;;;6.60;1.83;;;10.70;99.90;;;;;;5099613;28;20044;-72
2023/04/20 02:11:43;;;;;;;5.45;1.58;;;10.70;99.90;;;;;;5099297;28;20051;-72
2023/04/20 02:14:10;;;;;;;5.03;1.70;;;10.80;99.90;;;;;;5099222;28;20052;-72
2023/04/20 02:16:36;;;;;;;5.15;1.70;;;10.70;99.90;;;;;;5099243;28;20101;-72
2023/04/20 02:19:02;;;;;;;4.13;1.85;;;10.60;99.90;;;;;;5099361;28;20076;-72
2023/04/20 02:21:27;;;;;;;7.90;1.70;;;10.40;99.90;;;;;;5099367;28;20082;-72
2023/04/20 02:23:53;;;;;;;6.13;2.30;;;10.50;99.90;;;;;;5099300;28;20043;-72
2023/04/20 02:26:19;;;;;;;6.18;2.30;;;10.50;99.90;;;;;;5099274;28;20036;-72
2023/04/20 02:28:46;;;;;;;11.52;2.38;;;10.40;99.90;;;;;;5099736;28;20032;-72
2023/04/20 02:31:11;;;;;;;5.70;1.85;;;10.40;99.90;;;;;;5099183;28;20059;-72
2023/04/20 02:33:37;;;;;;;7.85;1.90;;;10.30;99.90;;;;;;5098725;28;20052;-72
2023/04/20 02:36:03;;;;;;;5.30;1.92;;;10.30;99.90;;;;;;5098159;28;20148;-72
2023/04/20 02:38:29;;;;;;;9.23;1.90;;;10.30;99.90;;;;;;5097690;28;20471;-72
2023/04/20 02:40:55;;;;;;;8.70;2.40;;;10.30;99.90;;;;;;5098845;28;20036;-72
2023/04/20 02:43:20;;;;;;;9.73;2.40;;;10.30;99.90;;;;;;5098609;28;20043;-72
2023/04/20 02:45:46;;;;;;;9.30;2.10;;;10.30;99.90;;;;;;5098553;28;20040;-72
2023/04/20 02:48:12;;;;;;;7.10;2.10;;;10.30;99.90;;;;;;5098507;28;20044;-72
2023/04/20 02:50:38;;;;;;;4.82;1.98;;;10.20;99.90;;;;;;5098825;28;20127;-72
2023/04/20 02:53:04;;;;;;;4.63;1.55;;;10.30;99.90;;;;;;5097519;28;20114;-72
2023/04/20 02:55:29;;;;;;;8.23;1.77;;;10.30;99.90;;;;;;5097424;28;20413;-72
2023/04/20 02:57:55;;;;;;;7.45;2.05;;;10.40;99.90;;;;;;5097290;28;20054;-72
2023/04/20 03:00:21;;;;;;;6.70;1.70;;;10.50;99.90;;;;;;5098606;28;20032;-73
2023/04/20 03:02:46;;;;;;;6.10;1.70;;;10.50;99.90;;;;;;5098548;28;20413;-72
2023/04/20 03:05:12;;;;;;;4.68;2.13;;;10.50;99.90;;;;;;5097844;28;20067;-72
2023/04/20 03:07:38;;;;;;;4.85;2.17;;;10.50;99.90;;;;;;5098196;28;20040;-72
2023/04/20 03:10:05;;;;;;;3.70;1.58;;;10.40;99.90;;;;;;5098468;28;20036;-72
2023/04/20 03:12:30;;;;;;;6.03;2.10;;;10.20;99.90;;;;;;5098404;28;20048;-72
2023/04/20 03:14:56;;;;;;;4.75;1.90;;;10.30;99.90;;;;;;5097994;28;20039;-72
2023/04/20 03:17:22;;;;;;;6.60;1.50;;;10.40;99.90;;;;;;5097923;28;20055;-73
2023/04/20 03:19:48;;;;;;;6.90;1.95;;;10.40;99.90;;;;;;5098184;28;20444;-72
2023/04/20 03:22:14;;;;;;;9.63;2.20;;;10.40;99.90;;;;;;5098191;28;20307;-72
2023/04/20 03:24:39;;;;;;;6.60;1.80;;;10.40;99.90;;;;;;5097809;28;20059;-72
2023/04/20 03:27:05;;;;;;;5.47;2.20;;;10.40;99.90;;;;;;5098135;28;20040;-72
2023/04/20 03:29:31;;;;;;;4.88;1.90;;;10.30;99.90;;;;;;5096760;28;20126;-72
2023/04/20 03:31:56;;;;;;;7.20;1.80;;;10.20;99.90;;;;;;5097987;28;20047;-72
2023/04/20 03:34:22;;;;;;;7.00;1.67;;;10.30;99.90;;;;;;5097568;28;20044;-72
2023/04/20 03:36:48;;;;;;;5.95;2.00;;;10.30;99.90;;;;;;5097905;28;20044;-72
2023/04/20 03:39:13;;;;;;;6.78;1.77;;;10.40;99.90;;;;;;5098019;28;20048;-72
2023/04/20 03:41:39;;;;;;;6.40;1.88;;;10.30;99.90;;;;;;5097904;28;20111;-72
2023/04/20 03:44:05;;;;;;;9.20;2.08;;;10.40;99.90;;;;;;5097543;28;20073;-72
2023/04/20 03:46:32;;;;;;;7.65;1.67;;;10.30;99.90;;;;;;5096404;28;20051;-72
2023/04/20 03:48:58;;;;;;;5.97;1.90;;;10.30;99.90;;;;;;5097711;28;20048;-72
2023/04/20 03:51:23;;;;;;;5.88;1.67;;;10.40;99.90;;;;;;5097705;28;20044;-72
2023/04/20 03:53:50;;;;;;;9.60;1.75;;;10.40;99.90;;;;;;5095926;28;20054;-80
2023/04/20 03:56:16;;;;;;;5.07;1.40;;;10.40;99.90;;;;;;5080171;28;20365;-73
2023/04/20 03:58:41;;;;;;;6.68;1.95;;;10.20;99.90;;;;;;5076330;28;20028;-72
2023/04/20 04:01:07;;;;;;;7.35;1.65;;;10.20;99.90;;;;;;5076940;28;20430;-72
2023/04/20 04:03:34;;;;;;;4.03;1.70;;;10.20;99.90;;;;;;5076458;28;20299;-73
2023/04/20 04:06:00;;;;;;;5.72;2.00;;;10.20;99.90;;;;;;5076885;28;20037;-72
2023/04/20 04:08:25;;;;;;;3.35;1.63;;;10.20;99.90;;;;;;5077122;28;20358;-72
2023/04/20 04:10:51;;;;;;;3.85;1.80;;;10.30;99.90;;;;;;5077010;28;20181;-72
2023/04/20 04:13:17;;;;;;;4.13;1.52;;;10.20;99.90;;;;;;5076993;28;20040;-72
2023/04/20 04:15:42;;;;;;;3.95;1.67;;;10.20;99.90;;;;;;5077012;28;20040;-72
2023/04/20 04:18:08;;;;;;;4.15;1.45;;;10.20;99.90;;;;;;5076483;28;20048;-72
2023/04/20 04:20:34;;;;;;;3.80;1.50;;;10.20;99.90;;;;;;5076927;28;20035;-72
2023/04/20 04:22:59;;;;;;;5.80;1.52;;;10.10;99.90;;;;;;5076879;28;20029;-72
2023/04/20 04:25:25;;;;;;;4.18;1.30;;;10.00;99.90;;;;;;5076930;28;20037;-72
2023/04/20 04:27:52;;;;;;;6.95;1.70;;;9.90;99.90;;;;;;5058778;28;20046;-72
2023/04/20 04:30:18;;;;;;;6.03;1.58;;;10.00;99.90;;;;;;5076883;28;20382;-72
2023/04/20 04:32:45;;;;;;;5.97;1.63;;;10.00;99.90;;;;;;5075529;28;20040;-72
2023/04/20 04:35:12;;;;;;;6.97;1.42;;;10.00;99.90;;;;;;5075332;28;20040;-72
2023/04/20 04:37:38;;;;;;;5.05;1.40;;;10.10;99.90;;;;;;5076486;28;20046;-72
2023/04/20 04:40:06;;;;;;;6.72;1.30;;;10.10;99.90;;;;;;5076669;28;20036;-72
2023/04/20 04:42:33;;;;;;;4.88;1.58;;;10.10;99.90;;;;;;5076689;28;20040;-72
2023/04/20 04:45:01;;;;;;;7.07;1.70;;;10.10;99.90;;;;;;5076732;28;20039;-72
2023/04/20 04:47:28;;;;;;;5.35;1.75;;;10.20;99.90;;;;;;5076413;28;20032;-72
2023/04/20 04:49:54;;;;;;;7.60;1.50;;;10.10;99.90;;;;;;5076659;28;20048;-72
2023/04/20 04:52:20;;;;;;;2.67;1.40;;;10.20;99.90;;;;;;5076601;28;20040;-72
2023/04/20 04:54:46;;;;;;;12.75;2.17;;;10.10;99.90;;;;;;5076646;28;20037;-72
2023/04/20 04:57:12;;;;;;;4.22;1.25;;;10.00;99.90;;;;;;5076551;28;20453;-72
2023/04/20 04:59:37;;;;;;;5.93;1.50;;;10.10;99.90;;;;;;5076516;28;20307;-72
2023/04/20 05:02:03;;;;;;;7.53;1.73;;;10.00;99.90;;;;;;5076498;28;20338;-73
2023/04/20 05:04:28;;;;;;;5.47;1.55;;;10.00;99.90;;;;;;5076113;28;20041;-72
2023/04/20 05:06:54;;;;;;;5.95;1.55;;;9.90;99.90;;;;;;5076533;28;20043;-72
2023/04/20 05:09:20;;;;;;;6.32;1.88;;;9.80;99.90;;;;;;5076247;28;20101;-72
2023/04/20 05:11:46;;;;;;;5.25;1.83;;;9.80;99.90;;;;;;5076462;28;20064;-73
2023/04/20 05:14:12;;;;;;;7.13;1.73;;;9.90;99.90;;;;;;5075061;28;20397;-73
2023/04/20 05:16:37;;;;;;;4.72;1.70;;;10.00;99.90;;;;;;5075873;28;20092;-73
2023/04/20 05:19:03;;;;;;;5.03;1.88;;;10.10;99.90;;;;;;5079796;28;20044;-73
2023/04/20 05:21:29;;;;;;;8.85;1.80;;;9.90;99.90;;;;;;5080325;28;20385;-73
2023/04/20 05:23:55;;;;;;;5.13;1.60;;;9.90;99.90;;;;;;5080227;28;20043;-73
2023/04/20 05:26:21;;;;;;;5.72;1.63;;;10.00;99.90;;;;;;5080064;28;20036;-73
2023/04/20 05:28:46;;;;;;;8.40;1.70;;;9.80;99.90;;;;;;5079848;28;20123;-73
2023/04/20 05:31:12;;;;;;;7.95;1.88;;;9.80;99.90;;;;;;5080090;28;20040;-73
2023/04/20 05:33:38;;;;;;;4.78;1.60;;;9.90;99.90;;;;;;5079823;28;20048;-73
2023/04/20 05:36:09;;;;;;;5.15;1.70;;;9.70;99.90;;;;;;5079597;28;20123;-74
2023/04/20 05:38:34;;;;;;;7.20;1.70;;;9.80;99.90;;;;;;5079929;28;20315;-74
2023/04/20 05:41:00;;;;;;;5.00;1.50;;;9.60;99.90;;;;;;5078913;28;20039;-73
2023/04/20 05:43:25;;;;;;;7.60;2.42;;;9.60;99.90;;;;;;5079801;28;20388;-73
2023/04/20 05:45:51;;;;;;;6.55;1.77;;;9.70;99.90;;;;;;5079837;28;20040;-73
2023/04/20 05:48:17;;;;;;;5.63;1.75;;;9.80;99.90;;;;;;5078414;28;20117;-73
2023/04/20 05:50:42;;;;;;;5.50;1.70;;;9.80;99.90;;;;;;5079429;28;20043;-73
2023/04/20 05:53:08;;;;;;;7.90;1.88;;;9.90;99.90;;;;;;5079632;28;20048;-73
2023/04/20 05:55:34;;;;;;;8.32;2.25;;;9.50;99.90;;;;;;5079607;28;20485;-73
2023/04/20 05:57:59;;;;;;;4.30;1.52;;;9.50;99.90;;;;;;5079434;28;20413;-73
2023/04/20 06:00:25;;;;;;;5.82;1.63;;;9.40;99.90;;;;;;5079501;28;20041;-73
2023/04/20 06:02:51;;;;;;;6.68;2.33;;;9.30;99.90;;;;;;5079506;28;20111;-73
2023/04/20 06:05:16;;;;;;;7.60;2.08;;;9.40;99.90;;;;;;5079022;28;20051;-73
2023/04/20 06:07:42;;;;;;;3.67;1.63;;;9.50;99.90;;;;;;5079443;28;20044;-73
2023/04/20 06:10:08;;;;;;;6.93;1.70;;;9.40;99.90;;;;;;5079365;28;20041;-73
2023/04/20 06:12:34;;;;;;;4.32;2.00;;;9.40;99.90;;;;;;5079315;28;20122;-74
2023/04/20 06:15:00;;;;;;;5.88;2.00;;;9.40;99.90;;;;;;5079260;28;20055;-74
2023/04/20 06:17:25;;;;;;;4.95;1.95;;;9.50;99.90;;;;;;5096977;28;20063;-74
2023/04/20 06:19:51;;;;;;;4.82;1.92;;;9.60;99.90;;;;;;5097416;28;20329;-74
2023/04/20 06:22:18;;;;;;;5.18;2.03;;;9.50;99.90;;;;;;5098481;28;20429;-74
2023/04/20 06:24:43;;;;;;;6.28;1.92;;;9.40;99.90;;;;;;5098249;28;20032;-74
2023/04/20 06:27:10;;;;;;;7.40;2.20;;;9.40;99.90;;;;;;5098700;28;20036;-74
2023/04/20 06:29:36;;;;;;;10.20;1.92;;;9.40;99.90;;;;;;5078896;28;20086;-73
2023/04/20 06:32:02;;;;;;;8.85;2.15;;;9.40;99.90;;;;;;5078685;28;20032;-73
2023/04/20 06:34:28;;;;;;;6.43;2.03;;;9.30;99.90;;;;;;5078506;28;20032;-74
2023/04/20 06:36:53;;;;;;;4.95;1.85;;;9.30;99.90;;;;;;5078848;28;20488;-70
2023/04/20 06:39:19;;;;;;;7.90;2.15;;;9.30;99.90;;;;;;5078756;28;20406;-69
2023/04/20 06:41:45;;;;;;;8.75;2.67;;;9.50;99.90;;;;;;5078518;28;20043;-69
2023/04/20 06:44:11;;;;;;;6.40;2.10;;;9.70;99.90;;;;;;5078383;28;20124;-70
2023/04/20 06:46:36;;;;;;;7.63;2.00;;;9.70;99.90;;;;;;5078938;28;20044;-70
2023/04/20 06:49:02;;;;;;;5.80;2.03;;;9.60;99.90;;;;;;5078672;28;20391;-69
2023/04/20 06:51:28;;;;;;;6.28;2.05;;;9.40;99.90;;;;;;5077261;28;20059;-69
2023/04/20 06:53:55;;;;;;;5.20;2.00;;;9.30;99.90;;;;;;5078532;28;20051;-69
2023/04/20 06:56:21;;;;;;;9.75;2.45;;;9.20;99.90;;;;;;5078470;28;20111;-69
2023/04/20 06:58:47;;;;;;;9.32;1.98;;;9.30;99.90;;;;;;5078293;28;20524;-69
2023/04/20 07:01:12;;;;;;;5.07;2.30;;;9.30;99.90;;;;;;5078031;28;20444;-69
2023/04/20 07:03:38;;;;;;;4.97;2.20;;;9.30;99.90;;;;;;5077939;28;20044;-67
2023/04/20 07:06:06;;;;;;;7.70;2.60;;;9.30;99.90;;;;;;5078227;28;20040;-70
2023/04/20 07:08:32;;;;;;;9.18;2.40;;;9.20;99.90;;;;;;5078242;28;20299;-70
2023/04/20 07:10:58;;;;;;;6.82;2.25;;;9.20;99.90;;;;;;5078171;28;20051;-69
2023/04/20 07:13:24;;;;;;;7.82;2.47;;;9.10;99.90;;;;;;5078111;28;20036;-69
2023/04/20 07:15:50;;;;;;;12.02;2.80;;;9.10;99.90;;;;;;5078003;28;20048;-69
2023/04/20 07:18:15;;;;;;;9.23;3.42;;;9.10;99.90;;;;;;5077543;28;20132;-69
2023/04/20 07:20:41;;;;;;;5.20;2.20;;;9.30;99.90;;;;;;5076760;28;20403;-69
2023/04/20 07:23:07;;;;;;;6.75;2.80;;;9.10;99.90;;;;;;5077582;28;20315;-68
2023/04/20 07:25:32;;;;;;;5.70;2.72;;;9.20;99.90;;;;;;5076871;28;20072;-68
2023/04/20 07:27:58;;;;;;;7.90;3.20;;;8.80;99.90;;;;;;5077789;28;20098;-68
2023/04/20 07:30:24;;;;;;;8.80;2.92;;;8.80;99.90;;;;;;5077744;28;20036;-68
2023/04/20 07:32:50;;;;;;;8.52;2.60;;;8.90;99.90;;;;;;5077787;28;20047;-69
2023/04/20 07:35:16;;;;;;;8.40;3.03;;;9.10;99.90;;;;;;5077330;28;20040;-69
2023/04/20 07:37:42;;;;;;;4.57;2.85;;;9.30;99.90;;;;;;5059731;28;20041;-69
2023/04/20 07:40:08;;;;;;;7.70;2.83;;;9.30;99.90;;;;;;5076697;28;20049;-69
2023/04/20 07:42:35;;;;;;;8.13;2.83;;;9.30;99.90;;;;;;5077516;28;20044;-69
2023/04/20 07:45:02;;;;;;;6.65;2.70;;;9.20;99.90;;;;;;5077528;28;20043;-69
2023/04/20 07:47:28;;;;;;;4.90;2.80;;;9.10;99.90;;;;;;5077183;28;20047;-69
2023/04/20 07:49:54;;;;;;;6.25;2.80;;;9.00;99.90;;;;;;5077097;28;20044;-69
2023/04/20 07:52:20;;;;;;;6.75;2.90;;;8.90;99.90;;;;;;5077194;28;20041;-69
2023/04/20 07:54:45;;;;;;;11.88;2.90;;;8.70;99.90;;;;;;5077313;28;20101;-69
2023/04/20 07:57:11;;;;;;;9.38;3.33;;;8.70;99.90;;;;;;5077251;28;20120;-69
2023/04/20 07:59:39;;;;;;;5.65;2.58;;;8.60;99.90;;;;;;5077136;28;20123;-69
2023/04/20 08:02:06;;;;;;;3.88;2.67;;;8.80;99.90;;;;;;5077191;28;20112;-69
2023/04/20 08:04:32;;;;;;;8.38;2.95;;;8.90;99.90;;;;;;5076530;28;20422;-69
2023/04/20 08:06:57;;;;;;;6.55;2.88;;;9.10;99.90;;;;;;5077056;28;20127;-69
2023/04/20 08:09:24;;;;;;;6.05;2.85;;;9.10;99.90;;;;;;5077055;28;20040;-69
2023/04/20 08:11:51;;;;;;;5.72;2.92;;;9.30;99.90;;;;;;5092709;28;20101;-67
2023/04/20 08:14:16;;;;;;;7.13;3.00;;;9.30;99.90;;;;;;5077016;28;20123;-69
2023/04/20 08:16:42;;;;;;;8.52;2.95;;;9.30;99.90;;;;;;5076536;28;20074;-69
2023/04/20 08:19:10;;;;;;;8.63;3.03;;;9.20;99.90;;;;;;5075762;28;20052;-69
2023/04/20 08:21:37;;;;;;;5.70;3.03;;;9.20;99.90;;;;;;5076921;28;20040;-70
2023/04/20 08:24:04;;;;;;;6.22;2.58;;;9.30;99.90;;;;;;5076940;28;20036;-73
2023/04/20 08:26:31;;;;;;;6.88;3.00;;;9.40;99.90;;;;;;5075832;28;20043;-69
2023/04/20 08:28:57;;;;;;;4.95;3.30;;;9.30;99.90;;;;;;5076893;28;20431;-69
2023/04/20 08:31:22;;;;;;;7.13;3.00;;;9.20;99.90;;;;;;5075869;28;20166;-68
2023/04/20 08:33:48;;;;;;;8.07;3.40;;;9.00;99.90;;;;;;5075506;28;20090;-69
2023/04/20 08:36:14;;;;;;;6.72;3.60;;;9.00;99.90;;;;;;5075423;28;20425;-69
2023/04/20 08:38:39;;;;;;;7.78;3.25;;;9.00;99.90;;;;;;5058675;28;20045;-70
2023/04/20 08:41:05;;;;;;;9.57;3.85;;;9.10;99.90;;;;;;5076437;28;20032;-70
2023/04/20 08:43:31;;;;;;;10.82;3.67;;;9.00;99.90;;;;;;5075702;28;20040;-69
2023/04/20 08:45:59;;;;;;;11.25;3.80;;;9.00;99.90;;;;;;5075342;28;20124;-69
2023/04/20 08:48:28;;;;;;;10.82;3.80;;;9.00;99.90;;;;;;5092783;28;20052;-68
2023/04/20 08:50:54;;;;;;;7.03;3.67;;;9.10;99.90;;;;;;5076605;28;20044;-72
2023/04/20 08:53:21;;;;;;;7.88;4.05;;;9.30;99.90;;;;;;5078778;28;20123;-69
2023/04/20 08:55:49;;;;;;;8.30;3.92;;;9.40;99.90;;;;;;5080453;28;20509;-66
2023/04/20 08:58:15;;;;;;;9.48;4.20;;;9.60;99.90;;;;;;5079863;28;20037;-69
2023/04/20 09:00:47;;;;;;;7.63;3.60;;;9.70;99.90;;;;;;5080688;28;20047;-68
2023/04/20 09:03:13;;;;;;;6.72;3.60;;;9.70;99.90;;;;;;5080647;28;20068;-68
2023/04/20 09:05:39;;;;;;;8.05;3.80;;;9.60;99.90;;;;;;5079891;28;20059;-68
2023/04/20 09:08:05;;;;;;;11.73;3.60;;;9.60;99.90;;;;;;5080534;28;20111;-68
2023/04/20 09:10:42;;;;;;;12.55;4.22;;;9.60;99.90;;;;;;5080541;28;20044;-68
2023/04/20 09:13:20;;;;;;;7.63;4.00;;;9.40;99.90;;;;;;5080440;28;20048;-68
2023/04/20 09:15:45;;;;;;;6.90;3.80;;;9.30;99.90;;;;;;5080468;28;20115;-68
2023/04/20 09:18:13;;;;;;;10.38;4.10;;;9.30;99.90;;;;;;5079812;28;20127;-68
2023/04/20 09:20:39;;;;;;;9.35;4.20;;;9.50;99.90;;;;;;5080307;28;20078;-68
2023/04/20 09:23:16;;;;;;;12.52;4.43;;;9.40;99.90;;;;;;5080233;28;20067;-68
2023/04/20 09:25:45;;;;;;;10.50;4.65;;;9.40;99.90;;;;;;5080334;28;20438;-68
2023/04/20 09:28:12;;;;;;;11.70;5.00;;;9.50;99.90;;;;;;5080112;28;20097;-69
2023/04/20 09:30:55;;;;;;;11.60;4.68;;;9.60;99.90;;;;;;5080149;28;20041;-69
2023/04/20 09:33:27;;;;;;;13.15;4.78;;;9.80;99.90;;;;;;5080119;28;20036;-68
2023/04/20 09:36:01;;;;;;;6.28;4.07;;;9.80;99.90;;;;;;5079407;28;20456;-68
2023/04/20 09:38:26;;;;;;;10.68;4.07;;;9.90;99.90;;;;;;5079886;28;20044;-68
2023/04/20 09:40:53;;;;;;;7.78;4.15;;;9.90;99.90;;;;;;5078928;28;20051;-68
2023/04/20 09:43:21;;;;;;;9.77;4.72;;;10.10;99.90;;;;;;5079871;28;20120;-68
2023/04/20 09:45:49;;;;;;;8.73;3.88;;;10.30;99.90;;;;;;5079852;28;20040;-69
2023/04/20 09:48:17;;;;;;;9.35;4.28;;;10.40;99.90;;;;;;5079773;28;20391;-67
2023/04/20 09:50:44;;;;;;;8.45;4.15;;;10.60;99.90;;;;;;5078430;28;20032;-69
2023/04/20 09:53:12;;;;;;;10.10;4.10;;;10.50;99.90;;;;;;5079545;28;20086;-69
2023/04/20 09:55:38;;;;;;;11.00;5.20;;;10.50;99.90;;;;;;5079336;28;20496;-68
2023/04/20 09:58:04;;;;;;;9.60;4.40;;;10.60;99.90;;;;;;5079235;28;20040;-68
2023/04/20 10:00:29;;;;;;;9.52;4.68;;;10.60;99.90;;;;;;5078239;28;20076;-69
2023/04/20 10:02:56;;;;;;;11.45;4.75;;;10.70;99.90;;;;;;5078977;28;20071;-69
2023/04/20 10:05:38;;;;;;;9.75;4.18;;;10.50;99.90;;;;;;5079097;28;20048;-69
2023/04/20 10:08:05;;;;;;;9.43;4.40;;;10.40;99.90;;;;;;5079200;28;20043;-70
2023/04/20 10:10:42;;;;;;;9.68;4.35;;;10.40;99.90;;;;;;5079383;28;20040;-71
2023/04/20 10:13:07;;;;;;;9.65;4.82;;;10.40;99.90;;;;;;5079322;28;20048;-71
2023/04/20 10:15:38;;;;;;;7.65;4.38;;;10.30;99.90;;;;;;5078006;28;20120;-69
2023/04/20 10:18:22;;;;;;;8.82;4.15;;;10.30;99.90;;;;;;5077714;28;20052;-69
2023/04/20 10:20:48;;;;;;;8.93;4.47;;;10.20;99.90;;;;;;5079354;28;20083;-68
2023/04/20 10:23:15;;;;;;;10.20;4.20;;;10.20;99.90;;;;;;5077836;28;20079;-70
2023/04/20 10:25:41;;;;;;;11.00;4.50;;;10.20;99.90;;;;;;5077788;28;20037;-69
2023/04/20 10:28:09;;;;;;;10.48;4.47;;;10.20;99.90;;;;;;5079075;28;20039;-70
2023/04/20 10:30:36;;;;;;;8.25;4.28;;;10.20;99.90;;;;;;5078999;28;20041;-71
2023/04/20 10:33:07;;;;;;;10.48;4.82;;;10.20;99.90;;;;;;5078650;28;20074;-72
2023/04/20 10:35:51;;;;;;;13.15;4.78;;;10.00;99.90;;;;;;5077327;28;20482;-70
2023/04/20 10:38:36;;;;;;;9.07;4.47;;;10.00;99.90;;;;;;5078762;28;20233;-69
2023/04/20 10:41:12;;;;;;;11.15;5.18;;;9.90;99.90;;;;;;5077532;28;20048;-69
2023/04/20 10:43:41;;;;;;;11.93;5.13;;;10.00;99.90;;;;;;5078428;28;20445;-68
2023/04/20 10:46:17;;;;;;;10.75;5.25;;;10.20;99.90;;;;;;5078725;28;20033;-69
2023/04/20 10:49:09;;;;;;;11.35;5.53;;;10.10;99.90;;;;;;5078705;28;20094;-70
2023/04/20 10:51:35;;;;;;;11.40;5.20;;;10.20;99.90;;;;;;5091298;28;20044;-69
2023/04/20 10:54:03;;;;;;;9.27;5.30;;;10.20;99.90;;;;;;5098460;28;20044;-69
2023/04/20 10:56:41;;;;;;;10.70;5.32;;;10.10;99.90;;;;;;5098709;28;20087;-69
2023/04/20 10:59:08;;;;;;;10.40;5.38;;;10.10;99.90;;;;;;5098282;28;20036;-67
2023/04/20 11:01:34;;;;;;;10.65;5.25;;;10.10;99.90;;;;;;5098703;28;20032;-67
2023/04/20 11:04:00;;;;;;;10.90;5.18;;;10.10;99.90;;;;;;5097915;28;20426;-69
2023/04/20 11:06:27;;;;;;;9.77;5.18;;;10.20;99.90;;;;;;5097432;28;20048;-67
2023/04/20 11:08:53;;;;;;;12.57;6.45;;;10.20;99.90;;;;;;5098566;28;20044;-67
2023/04/20 11:11:20;;;;;;;9.32;5.60;;;10.30;99.90;;;;;;5098514;28;20104;-67
2023/04/20 11:13:47;;;;;;;11.48;5.68;;;10.30;99.90;;;;;;5098416;28;20084;-67
2023/04/20 11:16:15;;;;;;;13.25;6.10;;;10.20;99.90;;;;;;5098338;28;20096;-68
2023/04/20 11:18:54;;;;;;;11.43;5.70;;;10.30;99.90;;;;;;5097895;28;20052;-67
2023/04/20 11:21:21;;;;;;;12.02;6.28;;;10.40;99.90;;;;;;5098303;28;20032;-68
2023/04/20 11:23:49;;;;;;;10.27;5.68;;;10.60;99.90;;;;;;5098262;28;20040;-68
2023/04/20 11:26:15;;;;;;;9.73;6.22;;;10.60;99.90;;;;;;5098170;28;20040;-67
2023/04/20 11:28:53;;;;;;;12.30;6.70;;;10.70;99.90;;;;;;5079872;28;20044;-67
2023/04/20 11:31:19;;;;;;;10.27;6.85;;;10.40;99.90;;;;;;5098084;28;20127;-67
2023/04/20 11:33:46;;;;;;;12.48;6.70;;;10.40;99.90;;;;;;5097992;28;20063;-67
2023/04/20 11:36:22;;;;;;;12.02;6.80;;;10.30;99.90;;;;;;5097385;28;20036;-67
2023/04/20 11:38:48;;;;;;;15.30;6.80;;;10.40;99.90;;;;;;5097906;28;20058;-67
2023/04/20 11:41:15;;;;;;;14.85;7.30;;;10.30;99.90;;;;;;5097602;28;20042;-67
2023/04/20 11:43:42;;;;;;;10.02;6.22;;;10.30;99.90;;;;;;5097553;28;20093;-68
2023/04/20 11:46:15;;;;;;;13.25;7.10;;;10.30;99.90;;;;;;5097836;28;20048;-69
2023/04/20 11:48:41;;;;;;;15.63;7.18;;;10.60;99.90;;;;;;5097789;28;20071;-66
2023/04/20 11:51:07;;;;;;;17.88;6.88;;;10.60;99.90;;;;;;5096780;28;20044;-65
2023/04/20 11:53:33;;;;;;;13.38;6.55;;;10.50;99.90;;;;;;5097403;28;20306;-69
2023/04/20 11:55:59;;;;;;;13.32;7.10;;;10.50;99.90;;;;;;5096674;28;20044;-66
2023/04/20 11:58:25;;;;;;;17.02;7.50;;;10.60;99.90;;;;;;5096537;28;20068;-65
2023/04/20 12:00:50;;;;;;;12.07;6.97;;;10.70;99.90;;;;;;5097546;28;20106;-66
2023/04/20 12:03:16;;;;;;;13.63;7.85;;;10.80;99.90;;;;;;5097441;28;20040;-66
2023/04/20 12:05:42;;;;;;;16.35;7.32;;;11.00;99.90;;;;;;5097060;28;20036;-66
2023/04/20 12:08:08;;;;;;;13.90;7.75;;;11.10;99.90;;;;;;5097235;28;20048;-66
2023/04/20 12:10:34;;;;;;;15.88;8.13;;;11.00;99.90;;;;;;5096084;28;20043;-68
2023/04/20 12:13:00;;;;;;;19.00;8.23;;;11.10;99.90;;;;;;5096952;28;20040;-67
2023/04/20 12:15:26;;;;;;;15.00;7.45;;;11.10;99.90;;;;;;5097310;28;20047;-67
2023/04/20 12:17:52;;;;;;;16.50;8.85;;;11.00;99.90;;;;;;5096947;28;20356;-67
2023/04/20 12:20:18;;;;;;;15.85;8.05;;;11.00;99.90;;;;;;5096794;28;20433;-67
2023/04/20 12:22:44;;;;;;;14.93;9.00;;;11.10;99.90;;;;;;5096158;28;20295;-67
2023/04/20 12:25:10;;;;;;;12.82;7.55;;;11.20;99.90;;;;;;5096744;28;20123;-67
2023/04/20 12:27:36;;;;;;;13.10;7.93;;;11.20;99.90;;;;;;5096988;28;20115;-67
2023/04/20 12:30:02;;;;;;;17.02;8.20;;;11.40;99.90;;;;;;5097029;28;20081;-67
2023/04/20 12:32:28;;;;;;;12.88;8.00;;;11.70;99.90;;;;;;5095776;28;20052;-67
2023/04/20 12:34:54;;;;;;;13.95;7.97;;;12.10;99.90;;;;;;5096580;28;20364;-67
2023/04/20 12:37:20;;;;;;;13.68;7.32;;;12.90;99.90;;;;;;5097315;28;20069;-67
2023/04/20 12:39:46;;;;;;;12.80;7.10;;;13.30;99.90;;;;;;5077985;28;20036;-68
2023/04/20 12:42:13;;;;;;;12.77;7.38;;;13.50;99.90;;;;;;5095389;28;20032;-74
2023/04/20 12:44:39;;;;;;;12.90;7.53;;;13.50;99.90;;;;;;5093668;28;20032;-70